sensor_id;sensor_type;location;lat;lon;timestamp;pressure;altitude;pressure_sealevel;temperature;humidity
76627;BME280;65519;53.230;10.390;2022-12-18T00:02:04;102658.91;;;-5.19;78.71
76627;BME280;65519;53.230;10.390;2022-12-18T00:04:29;102650.88;;;-5.52;78.82
76627;BME280;65519;53.230;10.390;2022-12-18T00:06:54;102660.53;;;-5.40;79.27
76627;BME280;65519;53.230;10.390;2022-12-18T00:09:20;102666.13;;;-5.43;79.11
76627;BME280;65519;53.230;10.390;2022-12-18T00:11:47;102666.38;;;-5.35;78.20
76627;BME280;65519;53.230;10.390;2022-12-18T00:14:13;102677.34;;;-5.39;78.25
76627;BME280;65519;53.230;10.390;2022-12-18T00:16:39;102682.88;;;-5.54;78.99
76627;BME280;65519;53.230;10.390;2022-12-18T00:19:06;102671.63;;;-5.81;79.87
76627;BME280;65519;53.230;10.390;2022-12-18T00:21:33;102675.66;;;-5.75;80.45
76627;BME280;65519;53.230;10.390;2022-12-18T00:23:59;102670.88;;;-5.59;79.92
76627;BME280;65519;53.230;10.390;2022-12-18T00:26:32;102670.66;;;-5.56;79.57
76627;BME280;65519;53.230;10.390;2022-12-18T00:29:06;102662.09;;;-5.48;79.31
76627;BME280;65519;53.230;10.390;2022-12-18T00:31:32;102664.44;;;-5.33;78.81
76627;BME280;65519;53.230;10.390;2022-12-18T00:33:58;102667.59;;;-5.28;78.07
76627;BME280;65519;53.230;10.390;2022-12-18T00:36:29;102671.66;;;-5.46;79.28
76627;BME280;65519;53.230;10.390;2022-12-18T00:38:56;102665.25;;;-5.43;78.86
76627;BME280;65519;53.230;10.390;2022-12-18T00:41:22;102684.28;;;-5.61;79.96
76627;BME280;65519;53.230;10.390;2022-12-18T00:44:09;102677.38;;;-5.74;80.47
76627;BME280;65519;53.230;10.390;2022-12-18T00:46:35;102682.25;;;-5.57;79.67
76627;BME280;65519;53.230;10.390;2022-12-18T00:49:01;102695.75;;;-5.60;79.76
76627;BME280;65519;53.230;10.390;2022-12-18T00:51:26;102695.53;;;-5.57;79.65
76627;BME280;65519;53.230;10.390;2022-12-18T00:53:52;102688.00;;;-5.98;80.40
76627;BME280;65519;53.230;10.390;2022-12-18T00:56:23;102693.72;;;-5.92;80.09
76627;BME280;65519;53.230;10.390;2022-12-18T00:58:49;102690.63;;;-5.74;79.88
76627;BME280;65519;53.230;10.390;2022-12-18T01:01:14;102691.06;;;-5.92;79.93
76627;BME280;65519;53.230;10.390;2022-12-18T01:03:40;102687.56;;;-5.92;80.06
76627;BME280;65519;53.230;10.390;2022-12-18T01:06:07;102708.19;;;-5.96;80.61
76627;BME280;65519;53.230;10.390;2022-12-18T01:08:33;102707.22;;;-5.95;79.87
76627;BME280;65519;53.230;10.390;2022-12-18T01:10:58;102707.09;;;-5.93;79.96
76627;BME280;65519;53.230;10.390;2022-12-18T01:13:24;102704.38;;;-6.28;81.20
76627;BME280;65519;53.230;10.390;2022-12-18T01:15:50;102701.06;;;-6.19;81.19
76627;BME280;65519;53.230;10.390;2022-12-18T01:18:16;102695.31;;;-6.26;81.17
76627;BME280;65519;53.230;10.390;2022-12-18T01:20:41;102710.25;;;-6.12;80.37
76627;BME280;65519;53.230;10.390;2022-12-18T01:23:06;102706.53;;;-6.09;80.02
76627;BME280;65519;53.230;10.390;2022-12-18T01:25:32;102698.53;;;-5.97;79.93
76627;BME280;65519;53.230;10.390;2022-12-18T01:27:57;102709.44;;;-5.88;79.84
76627;BME280;65519;53.230;10.390;2022-12-18T01:30:22;102712.59;;;-6.07;80.58
76627;BME280;65519;53.230;10.390;2022-12-18T01:32:48;102714.59;;;-6.11;80.87
76627;BME280;65519;53.230;10.390;2022-12-18T01:35:13;102705.66;;;-5.97;79.92
76627;BME280;65519;53.230;10.390;2022-12-18T01:37:39;102704.69;;;-5.96;80.09
76627;BME280;65519;53.230;10.390;2022-12-18T01:40:05;102700.00;;;-6.16;80.65
76627;BME280;65519;53.230;10.390;2022-12-18T01:42:30;102693.72;;;-5.92;80.12
76627;BME280;65519;53.230;10.390;2022-12-18T01:47:38;102685.53;;;-5.88;79.44
76627;BME280;65519;53.230;10.390;2022-12-18T01:52:38;102675.00;;;-6.14;80.35
76627;BME280;65519;53.230;10.390;2022-12-18T01:55:04;102689.81;;;-5.99;79.82
76627;BME280;65519;53.230;10.390;2022-12-18T01:57:31;102680.94;;;-6.10;80.52
76627;BME280;65519;53.230;10.390;2022-12-18T01:59:59;102687.81;;;-6.32;80.88
76627;BME280;65519;53.230;10.390;2022-12-18T02:02:28;102690.59;;;-6.09;79.98
76627;BME280;65519;53.230;10.390;2022-12-18T02:04:54;102695.06;;;-6.10;79.74
76627;BME280;65519;53.230;10.390;2022-12-18T02:07:35;102696.28;;;-6.27;80.43
76627;BME280;65519;53.230;10.390;2022-12-18T02:13:13;102709.81;;;-6.06;79.40
76627;BME280;65519;53.230;10.390;2022-12-18T02:15:46;102706.81;;;-6.01;78.53
76627;BME280;65519;53.230;10.390;2022-12-18T02:18:19;102711.28;;;-6.02;78.82
76627;BME280;65519;53.230;10.390;2022-12-18T02:20:59;102715.13;;;-6.06;78.39
76627;BME280;65519;53.230;10.390;2022-12-18T02:23:57;102707.75;;;-6.26;79.61
76627;BME280;65519;53.230;10.390;2022-12-18T02:26:34;102706.69;;;-6.23;79.61
76627;BME280;65519;53.230;10.390;2022-12-18T02:29:15;102710.97;;;-6.46;79.90
76627;BME280;65519;53.230;10.390;2022-12-18T02:31:56;102704.88;;;-6.23;79.71
76627;BME280;65519;53.230;10.390;2022-12-18T02:34:26;102713.00;;;-6.13;78.94
76627;BME280;65519;53.230;10.390;2022-12-18T02:36:54;102718.97;;;-6.10;78.91
76627;BME280;65519;53.230;10.390;2022-12-18T02:39:21;102710.47;;;-6.15;78.56
76627;BME280;65519;53.230;10.390;2022-12-18T02:41:49;102717.09;;;-6.20;78.57
76627;BME280;65519;53.230;10.390;2022-12-18T02:44:15;102720.19;;;-6.03;78.76
76627;BME280;65519;53.230;10.390;2022-12-18T02:46:43;102722.84;;;-6.03;78.34
76627;BME280;65519;53.230;10.390;2022-12-18T02:52:02;102723.44;;;-6.23;78.74
76627;BME280;65519;53.230;10.390;2022-12-18T03:00:14;102742.78;;;-6.21;78.69
76627;BME280;65519;53.230;10.390;2022-12-18T03:03:03;102735.03;;;-6.24;78.98
76627;BME280;65519;53.230;10.390;2022-12-18T03:05:38;102733.66;;;-6.17;77.77
76627;BME280;65519;53.230;10.390;2022-12-18T03:08:12;102736.69;;;-6.10;77.68
76627;BME280;65519;53.230;10.390;2022-12-18T03:10:41;102736.41;;;-6.18;78.58
76627;BME280;65519;53.230;10.390;2022-12-18T03:13:08;102725.03;;;-6.20;78.34
76627;BME280;65519;53.230;10.390;2022-12-18T03:15:39;102728.34;;;-6.17;77.21
76627;BME280;65519;53.230;10.390;2022-12-18T03:18:18;102727.41;;;-6.29;77.94
76627;BME280;65519;53.230;10.390;2022-12-18T03:20:49;102727.91;;;-6.23;78.69
76627;BME280;65519;53.230;10.390;2022-12-18T03:23:20;102725.16;;;-6.22;78.35
76627;BME280;65519;53.230;10.390;2022-12-18T03:25:47;102728.00;;;-6.25;78.27
76627;BME280;65519;53.230;10.390;2022-12-18T03:28:16;102724.50;;;-6.26;78.39
76627;BME280;65519;53.230;10.390;2022-12-18T03:30:46;102719.22;;;-6.26;78.04
76627;BME280;65519;53.230;10.390;2022-12-18T03:33:18;102724.31;;;-6.35;77.62
76627;BME280;65519;53.230;10.390;2022-12-18T03:35:45;102721.16;;;-6.28;77.75
76627;BME280;65519;53.230;10.390;2022-12-18T03:38:11;102734.66;;;-6.43;78.31
76627;BME280;65519;53.230;10.390;2022-12-18T03:43:18;102734.09;;;-6.36;78.56
76627;BME280;65519;53.230;10.390;2022-12-18T03:45:53;102735.97;;;-6.25;78.01
76627;BME280;65519;53.230;10.390;2022-12-18T03:48:32;102733.84;;;-6.20;77.80
76627;BME280;65519;53.230;10.390;2022-12-18T03:51:06;102726.69;;;-6.43;77.84
76627;BME280;65519;53.230;10.390;2022-12-18T03:53:39;102729.47;;;-6.57;78.49
76627;BME280;65519;53.230;10.390;2022-12-18T03:56:08;102737.94;;;-6.52;78.66
76627;BME280;65519;53.230;10.390;2022-12-18T03:58:35;102743.66;;;-6.58;78.53
76627;BME280;65519;53.230;10.390;2022-12-18T04:01:05;102740.72;;;-6.67;78.32
76627;BME280;65519;53.230;10.390;2022-12-18T04:03:34;102753.66;;;-6.62;78.63
76627;BME280;65519;53.230;10.390;2022-12-18T04:06:01;102744.22;;;-6.66;77.99
76627;BME280;65519;53.230;10.390;2022-12-18T04:08:27;102739.03;;;-6.93;78.41
76627;BME280;65519;53.230;10.390;2022-12-18T04:10:53;102748.47;;;-6.89;79.29
76627;BME280;65519;53.230;10.390;2022-12-18T04:13:28;102748.16;;;-6.97;79.30
76627;BME280;65519;53.230;10.390;2022-12-18T04:15:54;102744.44;;;-6.82;79.20
76627;BME280;65519;53.230;10.390;2022-12-18T04:18:19;102746.34;;;-6.71;78.21
76627;BME280;65519;53.230;10.390;2022-12-18T04:20:45;102746.97;;;-6.68;77.82
76627;BME280;65519;53.230;10.390;2022-12-18T04:23:10;102754.81;;;-6.66;78.01
76627;BME280;65519;53.230;10.390;2022-12-18T04:25:36;102740.31;;;-6.60;76.86
76627;BME280;65519;53.230;10.390;2022-12-18T04:28:01;102746.31;;;-6.58;77.34
76627;BME280;65519;53.230;10.390;2022-12-18T04:30:26;102748.66;;;-6.79;78.16
76627;BME280;65519;53.230;10.390;2022-12-18T04:32:52;102743.47;;;-6.81;77.17
76627;BME280;65519;53.230;10.390;2022-12-18T04:35:17;102744.56;;;-6.71;77.40
76627;BME280;65519;53.230;10.390;2022-12-18T04:37:43;102739.75;;;-6.78;77.90
76627;BME280;65519;53.230;10.390;2022-12-18T04:40:08;102746.13;;;-6.81;77.61
76627;BME280;65519;53.230;10.390;2022-12-18T04:42:34;102742.84;;;-6.97;78.21
76627;BME280;65519;53.230;10.390;2022-12-18T04:44:59;102739.13;;;-6.94;77.80
76627;BME280;65519;53.230;10.390;2022-12-18T04:47:24;102739.44;;;-6.99;78.27
76627;BME280;65519;53.230;10.390;2022-12-18T04:49:50;102742.41;;;-6.91;77.59
76627;BME280;65519;53.230;10.390;2022-12-18T04:52:15;102738.81;;;-6.90;78.25
76627;BME280;65519;53.230;10.390;2022-12-18T04:54:40;102735.09;;;-6.87;77.95
76627;BME280;65519;53.230;10.390;2022-12-18T04:57:06;102723.84;;;-6.91;77.50
76627;BME280;65519;53.230;10.390;2022-12-18T04:59:31;102720.25;;;-7.03;77.23
76627;BME280;65519;53.230;10.390;2022-12-18T05:01:56;102722.69;;;-7.25;77.78
76627;BME280;65519;53.230;10.390;2022-12-18T05:04:22;102722.31;;;-7.33;78.50
76627;BME280;65519;53.230;10.390;2022-12-18T05:06:47;102725.94;;;-7.21;78.66
76627;BME280;65519;53.230;10.390;2022-12-18T05:09:13;102733.28;;;-7.12;77.75
76627;BME280;65519;53.230;10.390;2022-12-18T05:11:38;102732.88;;;-7.06;77.37
76627;BME280;65519;53.230;10.390;2022-12-18T05:14:03;102739.84;;;-7.18;78.57
76627;BME280;65519;53.230;10.390;2022-12-18T05:16:29;102744.81;;;-7.13;78.43
76627;BME280;65519;53.230;10.390;2022-12-18T05:18:54;102738.69;;;-7.26;78.42
76627;BME280;65519;53.230;10.390;2022-12-18T05:21:19;102740.38;;;-7.25;78.42
76627;BME280;65519;53.230;10.390;2022-12-18T05:23:45;102751.72;;;-7.11;78.40
76627;BME280;65519;53.230;10.390;2022-12-18T05:26:16;102745.81;;;-7.14;77.28
76627;BME280;65519;53.230;10.390;2022-12-18T05:28:42;102754.09;;;-7.46;78.44
76627;BME280;65519;53.230;10.390;2022-12-18T05:31:09;102761.69;;;-7.54;78.32
76627;BME280;65519;53.230;10.390;2022-12-18T05:33:35;102772.94;;;-7.50;78.63
76627;BME280;65519;53.230;10.390;2022-12-18T05:36:02;102772.13;;;-7.38;78.25
76627;BME280;65519;53.230;10.390;2022-12-18T05:38:28;102777.47;;;-7.25;77.62
76627;BME280;65519;53.230;10.390;2022-12-18T05:40:54;102776.31;;;-7.21;77.88
76627;BME280;65519;53.230;10.390;2022-12-18T05:43:21;102786.53;;;-7.42;78.20
76627;BME280;65519;53.230;10.390;2022-12-18T05:45:47;102788.13;;;-7.40;77.76
76627;BME280;65519;53.230;10.390;2022-12-18T05:48:14;102793.31;;;-7.65;77.99
76627;BME280;65519;53.230;10.390;2022-12-18T05:50:41;102791.25;;;-7.60;78.99
76627;BME280;65519;53.230;10.390;2022-12-18T05:53:07;102792.59;;;-7.40;77.69
76627;BME280;65519;53.230;10.390;2022-12-18T05:55:37;102799.34;;;-7.49;77.49
76627;BME280;65519;53.230;10.390;2022-12-18T05:58:04;102794.03;;;-7.49;78.09
76627;BME280;65519;53.230;10.390;2022-12-18T06:00:31;102791.13;;;-7.31;77.08
76627;BME280;65519;53.230;10.390;2022-12-18T06:02:57;102784.28;;;-7.48;78.28
76627;BME280;65519;53.230;10.390;2022-12-18T06:05:22;102793.53;;;-7.41;77.19
76627;BME280;65519;53.230;10.390;2022-12-18T06:07:48;102791.53;;;-7.38;78.33
76627;BME280;65519;53.230;10.390;2022-12-18T06:10:13;102784.78;;;-7.29;77.49
76627;BME280;65519;53.230;10.390;2022-12-18T06:12:39;102790.13;;;-7.43;77.38
76627;BME280;65519;53.230;10.390;2022-12-18T06:15:04;102777.91;;;-7.58;78.45
76627;BME280;65519;53.230;10.390;2022-12-18T06:17:31;102774.50;;;-7.60;77.76
76627;BME280;65519;53.230;10.390;2022-12-18T06:19:57;102785.44;;;-7.52;78.03
76627;BME280;65519;53.230;10.390;2022-12-18T06:22:23;102798.84;;;-7.68;78.71
76627;BME280;65519;53.230;10.390;2022-12-18T06:24:48;102800.13;;;-7.61;77.93
76627;BME280;65519;53.230;10.390;2022-12-18T06:27:14;102801.53;;;-7.55;78.42
76627;BME280;65519;53.230;10.390;2022-12-18T06:29:39;102790.38;;;-7.60;78.55
76627;BME280;65519;53.230;10.390;2022-12-18T06:32:05;102802.63;;;-7.72;78.46
76627;BME280;65519;53.230;10.390;2022-12-18T06:34:31;102814.59;;;-7.66;78.49
76627;BME280;65519;53.230;10.390;2022-12-18T06:36:57;102814.25;;;-7.75;79.41
76627;BME280;65519;53.230;10.390;2022-12-18T06:39:22;102816.16;;;-7.77;79.11
76627;BME280;65519;53.230;10.390;2022-12-18T06:41:48;102819.47;;;-7.73;77.96
76627;BME280;65519;53.230;10.390;2022-12-18T06:44:13;102813.34;;;-7.88;79.59
76627;BME280;65519;53.230;10.390;2022-12-18T06:46:38;102813.34;;;-7.88;79.56
76627;BME280;65519;53.230;10.390;2022-12-18T06:49:04;102815.09;;;-7.74;77.58
76627;BME280;65519;53.230;10.390;2022-12-18T06:51:29;102822.28;;;-7.76;77.59
76627;BME280;65519;53.230;10.390;2022-12-18T06:53:55;102823.44;;;-7.80;78.36
76627;BME280;65519;53.230;10.390;2022-12-18T06:56:20;102835.34;;;-7.73;77.99
76627;BME280;65519;53.230;10.390;2022-12-18T06:58:46;102834.78;;;-7.78;77.51
76627;BME280;65519;53.230;10.390;2022-12-18T07:01:12;102840.28;;;-8.10;79.08
76627;BME280;65519;53.230;10.390;2022-12-18T07:03:38;102849.75;;;-8.05;78.09
76627;BME280;65519;53.230;10.390;2022-12-18T07:06:04;102855.06;;;-8.05;78.34
76627;BME280;65519;53.230;10.390;2022-12-18T07:08:30;102849.00;;;-7.93;78.61
76627;BME280;65519;53.230;10.390;2022-12-18T07:10:56;102846.91;;;-7.88;77.83
76627;BME280;65519;53.230;10.390;2022-12-18T07:13:21;102835.00;;;-7.95;78.02
76627;BME280;65519;53.230;10.390;2022-12-18T07:15:47;102837.66;;;-7.95;77.93
76627;BME280;65519;53.230;10.390;2022-12-18T07:18:12;102827.94;;;-8.23;79.15
76627;BME280;65519;53.230;10.390;2022-12-18T07:20:37;102832.28;;;-8.08;78.09
76627;BME280;65519;53.230;10.390;2022-12-18T07:23:04;102835.84;;;-7.81;77.50
76627;BME280;65519;53.230;10.390;2022-12-18T07:25:33;102836.88;;;-7.83;77.83
76627;BME280;65519;53.230;10.390;2022-12-18T07:27:59;102842.75;;;-7.92;78.04
76627;BME280;65519;53.230;10.390;2022-12-18T07:30:25;102853.94;;;-8.01;78.23
76627;BME280;65519;53.230;10.390;2022-12-18T07:32:50;102833.59;;;-8.15;78.00
76627;BME280;65519;53.230;10.390;2022-12-18T07:35:15;102850.22;;;-7.85;77.76
76627;BME280;65519;53.230;10.390;2022-12-18T07:37:41;102857.22;;;-7.98;77.88
76627;BME280;65519;53.230;10.390;2022-12-18T07:40:06;102869.22;;;-8.06;77.99
76627;BME280;65519;53.230;10.390;2022-12-18T07:42:32;102877.75;;;-8.16;79.04
76627;BME280;65519;53.230;10.390;2022-12-18T07:45:01;102876.97;;;-8.18;78.93
76627;BME280;65519;53.230;10.390;2022-12-18T07:47:28;102877.06;;;-8.05;78.30
76627;BME280;65519;53.230;10.390;2022-12-18T07:49:54;102870.16;;;-7.93;77.64
76627;BME280;65519;53.230;10.390;2022-12-18T07:52:19;102869.50;;;-8.25;78.54
76627;BME280;65519;53.230;10.390;2022-12-18T07:54:45;102869.81;;;-8.16;79.15
76627;BME280;65519;53.230;10.390;2022-12-18T07:57:10;102862.31;;;-8.09;78.78
76627;BME280;65519;53.230;10.390;2022-12-18T07:59:36;102867.53;;;-8.07;78.53
76627;BME280;65519;53.230;10.390;2022-12-18T08:02:02;102869.72;;;-8.14;79.55
76627;BME280;65519;53.230;10.390;2022-12-18T08:04:28;102869.06;;;-8.32;79.11
76627;BME280;65519;53.230;10.390;2022-12-18T08:06:53;102868.84;;;-8.15;79.19
76627;BME280;65519;53.230;10.390;2022-12-18T08:09:18;102875.00;;;-8.14;78.74
76627;BME280;65519;53.230;10.390;2022-12-18T08:11:44;102876.72;;;-8.13;78.57
76627;BME280;65519;53.230;10.390;2022-12-18T08:14:09;102875.28;;;-7.90;77.86
76627;BME280;65519;53.230;10.390;2022-12-18T08:16:35;102878.13;;;-7.93;78.39
76627;BME280;65519;53.230;10.390;2022-12-18T08:19:01;102870.72;;;-7.88;77.77
76627;BME280;65519;53.230;10.390;2022-12-18T08:21:28;102858.59;;;-7.78;77.40
76627;BME280;65519;53.230;10.390;2022-12-18T08:23:56;102853.63;;;-7.83;77.45
76627;BME280;65519;53.230;10.390;2022-12-18T08:26:24;102847.44;;;-7.69;77.31
76627;BME280;65519;53.230;10.390;2022-12-18T08:28:50;102837.63;;;-7.81;77.68
76627;BME280;65519;53.230;10.390;2022-12-18T08:31:15;102834.41;;;-7.72;77.54
76627;BME280;65519;53.230;10.390;2022-12-18T08:33:41;102837.31;;;-7.77;77.95
76627;BME280;65519;53.230;10.390;2022-12-18T08:36:08;102823.09;;;-7.47;76.95
76627;BME280;65519;53.230;10.390;2022-12-18T08:38:34;102821.78;;;-7.27;76.10
76627;BME280;65519;53.230;10.390;2022-12-18T08:41:03;102820.25;;;-7.31;76.20
76627;BME280;65519;53.230;10.390;2022-12-18T08:43:29;102818.63;;;-7.47;75.83
76627;BME280;65519;53.230;10.390;2022-12-18T08:46:14;102818.31;;;-7.42;76.90
76627;BME280;65519;53.230;10.390;2022-12-18T08:48:39;102816.94;;;-7.48;76.63
76627;BME280;65519;53.230;10.390;2022-12-18T08:51:05;102816.75;;;-7.32;76.92
76627;BME280;65519;53.230;10.390;2022-12-18T08:53:30;102822.22;;;-7.48;76.16
76627;BME280;65519;53.230;10.390;2022-12-18T08:55:58;102824.41;;;-7.27;76.22
76627;BME280;65519;53.230;10.390;2022-12-18T08:58:24;102821.69;;;-7.13;76.60
76627;BME280;65519;53.230;10.390;2022-12-18T09:00:49;102823.31;;;-6.98;75.85
76627;BME280;65519;53.230;10.390;2022-12-18T09:03:16;102823.53;;;-6.88;75.67
76627;BME280;65519;53.230;10.390;2022-12-18T09:05:41;102833.97;;;-6.73;74.40
76627;BME280;65519;53.230;10.390;2022-12-18T09:08:07;102839.16;;;-6.84;75.16
76627;BME280;65519;53.230;10.390;2022-12-18T09:10:33;102837.38;;;-6.58;75.12
76627;BME280;65519;53.230;10.390;2022-12-18T09:12:59;102837.84;;;-6.91;75.43
76627;BME280;65519;53.230;10.390;2022-12-18T09:15:24;102834.94;;;-6.74;75.03
76627;BME280;65519;53.230;10.390;2022-12-18T09:17:49;102832.72;;;-6.42;74.70
76627;BME280;65519;53.230;10.390;2022-12-18T09:20:16;102841.50;;;-6.67;74.97
76627;BME280;65519;53.230;10.390;2022-12-18T09:22:41;102839.81;;;-6.55;74.74
76627;BME280;65519;53.230;10.390;2022-12-18T09:25:07;102823.34;;;-6.35;74.67
76627;BME280;65519;53.230;10.390;2022-12-18T09:27:35;102836.41;;;-6.19;74.29
76627;BME280;65519;53.230;10.390;2022-12-18T09:30:00;102834.06;;;-6.11;73.15
76627;BME280;65519;53.230;10.390;2022-12-18T09:32:26;102832.16;;;-6.09;73.90
76627;BME280;65519;53.230;10.390;2022-12-18T09:34:51;102823.66;;;-6.14;74.55
76627;BME280;65519;53.230;10.390;2022-12-18T09:37:17;102827.25;;;-5.66;75.29
76627;BME280;65519;53.230;10.390;2022-12-18T09:39:42;102832.06;;;-5.47;73.11
76627;BME280;65519;53.230;10.390;2022-12-18T09:42:20;102836.94;;;-5.41;71.90
76627;BME280;65519;53.230;10.390;2022-12-18T09:44:50;102835.28;;;-5.55;71.72
76627;BME280;65519;53.230;10.390;2022-12-18T09:47:22;102839.72;;;-5.42;71.56
76627;BME280;65519;53.230;10.390;2022-12-18T09:49:53;102830.47;;;-5.49;72.59
76627;BME280;65519;53.230;10.390;2022-12-18T09:52:30;102832.22;;;-5.13;72.09
76627;BME280;65519;53.230;10.390;2022-12-18T09:55:09;102840.84;;;-5.10;71.24
76627;BME280;65519;53.230;10.390;2022-12-18T09:57:40;102833.47;;;-5.54;72.13
76627;BME280;65519;53.230;10.390;2022-12-18T10:00:17;102847.75;;;-5.31;71.91
76627;BME280;65519;53.230;10.390;2022-12-18T10:02:44;102845.00;;;-5.19;71.72
76627;BME280;65519;53.230;10.390;2022-12-18T10:05:14;102842.56;;;-4.98;70.93
76627;BME280;65519;53.230;10.390;2022-12-18T10:08:02;102841.50;;;-4.84;70.94
76627;BME280;65519;53.230;10.390;2022-12-18T10:10:35;102839.31;;;-4.55;71.21
76627;BME280;65519;53.230;10.390;2022-12-18T10:18:44;102847.19;;;-4.20;69.43
76627;BME280;65519;53.230;10.390;2022-12-18T10:21:18;102843.66;;;-4.43;69.91
76627;BME280;65519;53.230;10.390;2022-12-18T10:26:14;102835.81;;;-3.78;69.11
76627;BME280;65519;53.230;10.390;2022-12-18T10:28:41;102843.00;;;-3.89;69.23
76627;BME280;65519;53.230;10.390;2022-12-18T10:31:07;102832.56;;;-3.92;69.20
76627;BME280;65519;53.230;10.390;2022-12-18T10:33:38;102844.31;;;-4.17;70.03
76627;BME280;65519;53.230;10.390;2022-12-18T10:36:04;102838.00;;;-3.94;69.61
76627;BME280;65519;53.230;10.390;2022-12-18T10:38:31;102842.13;;;-3.79;68.57
76627;BME280;65519;53.230;10.390;2022-12-18T10:41:02;102851.91;;;-3.57;68.49
76627;BME280;65519;53.230;10.390;2022-12-18T10:43:30;102849.44;;;-3.38;67.56
76627;BME280;65519;53.230;10.390;2022-12-18T10:48:54;102844.34;;;-3.41;67.29
76627;BME280;65519;53.230;10.390;2022-12-18T10:51:27;102856.06;;;-3.32;67.47
76627;BME280;65519;53.230;10.390;2022-12-18T10:54:12;102841.38;;;-3.58;67.72
76627;BME280;65519;53.230;10.390;2022-12-18T10:56:39;102837.19;;;-3.40;67.58
76627;BME280;65519;53.230;10.390;2022-12-18T10:59:07;102823.78;;;-3.50;67.77
76627;BME280;65519;53.230;10.390;2022-12-18T11:01:54;102837.31;;;-3.42;68.12
76627;BME280;65519;53.230;10.390;2022-12-18T11:04:28;102831.28;;;-3.55;68.22
76627;BME280;65519;53.230;10.390;2022-12-18T11:07:01;102830.22;;;-3.75;68.18
76627;BME280;65519;53.230;10.390;2022-12-18T11:09:31;102832.91;;;-3.75;69.11
76627;BME280;65519;53.230;10.390;2022-12-18T11:12:00;102820.75;;;-3.68;68.78
76627;BME280;65519;53.230;10.390;2022-12-18T11:16:52;102829.75;;;-3.69;68.92
76627;BME280;65519;53.230;10.390;2022-12-18T11:19:37;102828.63;;;-3.66;68.88
76627;BME280;65519;53.230;10.390;2022-12-18T11:24:56;102830.50;;;-3.35;68.23
76627;BME280;65519;53.230;10.390;2022-12-18T11:27:22;102829.63;;;-3.24;68.54
76627;BME280;65519;53.230;10.390;2022-12-18T11:29:49;102830.47;;;-3.23;68.15
76627;BME280;65519;53.230;10.390;2022-12-18T11:32:31;102821.75;;;-3.57;69.09
76627;BME280;65519;53.230;10.390;2022-12-18T11:35:17;102816.03;;;-3.21;68.27
76627;BME280;65519;53.230;10.390;2022-12-18T11:37:48;102814.88;;;-3.07;68.46
76627;BME280;65519;53.230;10.390;2022-12-18T11:40:24;102809.16;;;-3.03;68.56
76627;BME280;65519;53.230;10.390;2022-12-18T11:42:58;102798.44;;;-2.91;67.05
76627;BME280;65519;53.230;10.390;2022-12-18T11:45:34;102783.00;;;-2.88;67.21
76627;BME280;65519;53.230;10.390;2022-12-18T11:48:13;102786.72;;;-2.79;67.17
76627;BME280;65519;53.230;10.390;2022-12-18T11:53:11;102799.94;;;-2.78;67.59
76627;BME280;65519;53.230;10.390;2022-12-18T12:01:02;102786.50;;;-2.46;67.04
76627;BME280;65519;53.230;10.390;2022-12-18T12:06:45;102784.47;;;-2.33;66.01
76627;BME280;65519;53.230;10.390;2022-12-18T12:23:02;102760.38;;;-2.73;67.42
76627;BME280;65519;53.230;10.390;2022-12-18T12:28:12;102751.97;;;-3.10;68.43
76627;BME280;65519;53.230;10.390;2022-12-18T12:31:25;102746.13;;;-3.04;68.54
76627;BME280;65519;53.230;10.390;2022-12-18T12:34:23;102739.59;;;-2.90;68.22
76627;BME280;65519;53.230;10.390;2022-12-18T12:39:23;102737.91;;;-3.12;68.81
76627;BME280;65519;53.230;10.390;2022-12-18T12:41:52;102731.59;;;-3.11;68.96
76627;BME280;65519;53.230;10.390;2022-12-18T12:44:43;102722.81;;;-3.02;69.16
76627;BME280;65519;53.230;10.390;2022-12-18T12:47:17;102719.63;;;-3.16;69.40
76627;BME280;65519;53.230;10.390;2022-12-18T12:49:45;102709.28;;;-3.10;69.54
76627;BME280;65519;53.230;10.390;2022-12-18T12:52:28;102712.25;;;-3.24;70.05
76627;BME280;65519;53.230;10.390;2022-12-18T12:54:56;102690.88;;;-3.34;70.54
76627;BME280;65519;53.230;10.390;2022-12-18T12:57:33;102681.31;;;-3.15;70.17
76627;BME280;65519;53.230;10.390;2022-12-18T13:00:16;102681.75;;;-3.31;69.91
76627;BME280;65519;53.230;10.390;2022-12-18T13:05:54;102667.97;;;-3.15;70.17
76627;BME280;65519;53.230;10.390;2022-12-18T13:08:24;102652.91;;;-3.26;71.20
76627;BME280;65519;53.230;10.390;2022-12-18T13:10:51;102656.91;;;-3.32;70.99
76627;BME280;65519;53.230;10.390;2022-12-18T13:13:50;102658.09;;;-3.24;71.53
76627;BME280;65519;53.230;10.390;2022-12-18T13:16:19;102657.81;;;-3.21;71.16
76627;BME280;65519;53.230;10.390;2022-12-18T13:18:53;102664.97;;;-3.43;72.15
76627;BME280;65519;53.230;10.390;2022-12-18T13:21:31;102660.44;;;-3.52;72.28
76627;BME280;65519;53.230;10.390;2022-12-18T13:24:14;102668.13;;;-3.38;72.17
76627;BME280;65519;53.230;10.390;2022-12-18T13:26:40;102679.09;;;-3.31;71.90
76627;BME280;65519;53.230;10.390;2022-12-18T13:29:05;102676.41;;;-3.52;73.04
76627;BME280;65519;53.230;10.390;2022-12-18T13:36:43;102671.69;;;-3.48;72.58
76627;BME280;65519;53.230;10.390;2022-12-18T13:41:43;102685.06;;;-3.59;73.31
76627;BME280;65519;53.230;10.390;2022-12-18T13:46:45;102672.19;;;-3.54;73.44
76627;BME280;65519;53.230;10.390;2022-12-18T13:51:44;102655.03;;;-3.61;73.66
76627;BME280;65519;53.230;10.390;2022-12-18T13:54:38;102664.38;;;-3.67;74.63
76627;BME280;65519;53.230;10.390;2022-12-18T13:57:12;102669.16;;;-3.82;74.75
76627;BME280;65519;53.230;10.390;2022-12-18T13:59:50;102672.16;;;-3.75;74.44
76627;BME280;65519;53.230;10.390;2022-12-18T14:02:19;102664.53;;;-3.69;74.09
76627;BME280;65519;53.230;10.390;2022-12-18T14:04:46;102667.88;;;-3.67;74.44
76627;BME280;65519;53.230;10.390;2022-12-18T14:07:24;102677.69;;;-3.67;74.84
76627;BME280;65519;53.230;10.390;2022-12-18T14:09:58;102680.59;;;-3.91;75.54
76627;BME280;65519;53.230;10.390;2022-12-18T14:12:27;102666.88;;;-3.86;75.61